Terminal Aerodrome Forecast
Issued by NWS

Home | Current Version | Previous Version | Text Only | Print | Product List | Glossary On
Versions: 1 2 3 4 5 6 7 8 9 10 11 12 13 14 15 16 17 18 19
298
FTUS41 KILN 262323
TAFLUK
TAF
KLUK 262323Z 2700/2724 29006KT P6SM SCT060 BKN100
     FM270500 29004KT P6SM FEW060
     FM271400 31007KT P6SM SCT035=

USA.gov is the U.S. government's official web portal to all federal, state and local government web resources and services.